ADDS METAR Data INFO
IDs: Format: Raw Decoded Include TAF

Data at: 0430 UTC 26 May 2018

KHHF 260415Z AUTO 10007KT 10SM CLR 24/21 A2990 RMK AO2 T02420212
KHHF 260355Z AUTO 11007KT 10SM CLR 24/21 A2990 RMK AO2 T02440212
KHHF 260335Z AUTO 10004KT 10SM CLR 25/21 A2989 RMK AO2 T02500213
KHHF 260315Z AUTO 11008KT 10SM CLR 25/21 A2988 RMK AO2 T02530211
KHHF 260255Z AUTO 11007KT 10SM CLR 26/21 A2987 RMK AO2 T02600212
KHHF 260235Z AUTO 10007KT 10SM CLR 26/21 A2985 RMK AO2 LTG DSNT SE T02630212
KHHF 260215Z AUTO 10006KT 10SM CLR 27/21 A2984 RMK AO2 T02710213
KHHF 260155Z AUTO 10007KT 10SM CLR 28/21 A2984 RMK AO2 T02820214
KHHF 260135Z AUTO 11009KT 10SM CLR 29/22 A2983 RMK AO2 T02940215
KHHF 260115Z AUTO 12011G14KT 10SM CLR 31/21 A2983 RMK AO2 T03060214
KHHF 260055Z AUTO 12010KT 10SM CLR 32/21 A2983 RMK AO2 LTG DSNT SE T03160212
KHHF 260035Z AUTO 12015KT 10SM VCTS CLR 33/21 A2982 RMK AO2 LTG DSNT SE T03260206
KHHF 260015Z AUTO 12012G18KT 10SM CLR 34/20 A2981 RMK AO2 LTG DSNT SE T03380196
KHHF 252355Z AUTO 13014G19KT 10SM VCTS SCT080 35/20 A2981 RMK AO2 LTG DSNT E AND SE T03450195 10369 20325
KHHF 252335Z AUTO 11018G21KT 10SM SCT080 35/19 A2981 RMK AO2 T03520194
KHHF 252315Z AUTO 33007KT 10SM CLR 36/15 A2981 RMK AO2 LTG DSNT E T03570150
KHHF 252255Z AUTO 34009KT 10SM SCT085 36/15 A2982 RMK AO2 T03600148
KHHF 252235Z AUTO 34008KT 10SM CLR 36/16 A2982 RMK AO2 T03620156
KHHF 252215Z AUTO 28004KT 10SM CLR 37/15 A2983 RMK AO2 T03660148
KHHF 252155Z AUTO 01005KT 10SM CLR 37/15 A2983 RMK AO2 T03660154
KHHF 252135Z AUTO 28003KT 10SM SCT085 37/13 A2983 RMK AO2 T03670131
KHHF 252115Z AUTO 28007G19KT 10SM SCT075 SCT085 36/17 A2984 RMK AO2 T03580167
KHHF 252055Z AUTO 17011G15KT 10SM SCT080 35/19 A2984 RMK AO2 T03520188
KHHF 252035Z AUTO 15009G16KT 110V190 10SM CLR 35/20 A2984 RMK AO2 T03520195
KHHF 252015Z AUTO 18014G17KT 10SM CLR 35/20 A2985 RMK AO2 T03520195
KHHF 251955Z AUTO 18011G19KT 10SM CLR 35/21 A2985 RMK AO2 T03470205
KHHF 251935Z AUTO 18012G19KT 10SM CLR 34/20 A2987 RMK AO2 T03400203
KHHF 251915Z AUTO 21011G18KT 180V240 10SM CLR 34/20 A2988 RMK AO2 T03400200
KHHF 251855Z AUTO 15013G18KT 10SM CLR 33/21 A2989 RMK AO2 T03310210
KHHF 251835Z AUTO 16011G16KT 10SM CLR 33/21 A2990 RMK AO2 T03250205
KHHF 251815Z AUTO 16012G18KT 10SM SCT065 33/21 A2990 RMK AO2 T03270210
KHHF 251755Z AUTO 20004KT 10SM CLR 33/17 A2991 RMK AO2 T03310170 10332 20200
KHHF 251735Z AUTO 22010G16KT 10SM CLR 32/20 A2992 RMK AO2 T03240198
KHHF 251715Z AUTO 19014G19KT 10SM CLR 33/17 A2992 RMK AO2 T03250173
KHHF 251655Z AUTO 21012G20KT 10SM CLR 32/17 A2993 RMK AO2 T03210173
KHHF 251635Z AUTO 21011G18KT 10SM CLR 32/18 A2993 RMK AO2 T03160177
KHHF 251615Z AUTO 21015G18KT 10SM CLR 31/18 A2993 RMK AO2 T03100181
KHHF 251555Z AUTO 21013KT 10SM CLR 30/18 A2994 RMK AO2 T03000182
KHHF 251535Z AUTO 22008KT 10SM CLR 29/18 A2995 RMK AO2 T02930182
KHHF 251515Z AUTO 20011G16KT 10SM CLR 29/18 A2995 RMK AO2 T02900183
KHHF 251455Z AUTO 21006KT 10SM CLR 28/18 A2995 RMK AO2 T02810184
KHHF 251435Z AUTO 15005KT 10SM CLR 28/19 A2996 RMK AO2 T02760186
KHHF 251415Z AUTO 16005KT 10SM CLR 27/18 A2996 RMK AO2 T02690184
KHHF 251355Z AUTO 23003KT 10SM CLR 26/18 A2995 RMK AO2 T02610184
KHHF 251335Z AUTO 00000KT 10SM CLR 24/19 A2995 RMK AO2 T02400186
KHHF 251315Z AUTO 00000KT 10SM CLR 24/19 A2994 RMK AO2 T02400189
KHHF 251255Z AUTO 00000KT 10SM CLR 23/19 A2994 RMK AO2 T02260186
KHHF 251235Z AUTO 26003KT 10SM CLR 21/19 A2993 RMK AO2 T02130185
KHHF 251215Z AUTO 00000KT 10SM CLR 20/18 A2993 RMK AO2 T02010180
KHHF 251155Z AUTO 24003KT 10SM CLR 20/18 A2994 RMK AO2 T02000178 10242 20200
KHHF 251135Z AUTO 22004KT 10SM CLR 21/18 A2993 RMK AO2 T02060180
KHHF 251115Z AUTO 20008KT 10SM CLR 21/18 A2993 RMK AO2 T02110182
KHHF 251055Z AUTO 23010KT 10SM CLR 22/19 A2993 RMK AO2 T02150185
KHHF 251035Z AUTO 21014G22KT 10SM CLR 22/19 A2992 RMK AO2 T02150187
KHHF 251015Z AUTO 20009KT 10SM CLR 21/19 A2992 RMK AO2 T02120186
KHHF 250955Z AUTO 21008KT 10SM CLR 22/19 A2995 RMK AO2 LTG DSNT NE T02150186
KHHF 250935Z AUTO 00000KT 10SM CLR 22/19 A2996 RMK AO2 LTG DSNT NE T02170188
KHHF 250915Z AUTO 22009G14KT 10SM CLR 22/19 A2995 RMK AO2 T02200187
KHHF 250855Z AUTO 21012G20KT 10SM CLR 23/19 A2994 RMK AO2 T02250188
KHHF 250840Z AUTO 19017G24KT 10SM CLR 23/19 A2994 RMK AO2 T02260187
KHHF 250815Z AUTO 19019G26KT 10SM CLR 23/19 A2994 RMK AO2 T02300187
KHHF 250755Z AUTO 19021G27KT 10SM CLR 23/19 A2995 RMK AO2 T02300188
KHHF 250735Z AUTO 19018G24KT 10SM CLR 23/19 A2995 RMK AO2 T02320190
KHHF 250715Z AUTO 18019G26KT 10SM CLR 24/19 A2995 RMK AO2 T02370191
KHHF 250655Z AUTO 18015G23KT 10SM CLR 24/19 A2996 RMK AO2 T02400192
KHHF 250635Z AUTO 18020G27KT 10SM CLR 24/19 A2996 RMK AO2 T02400191
KHHF 250615Z AUTO 18018G26KT 10SM CLR 24/19 A2997 RMK AO2 T02410192
KHHF 250555Z AUTO 18018G24KT 10SM CLR 24/19 A2997 RMK AO2 T02430193 10315 20243 403270161
KHHF 250535Z AUTO 17019G25KT 10SM CLR 25/19 A2997 RMK AO2 T02450193
KHHF 250515Z AUTO 17017G23KT 10SM CLR 25/19 A2997 RMK AO2 T02470192
KHHF 250455Z AUTO 17017G23KT 10SM CLR 25/19 A2997 RMK AO2 T02500191
KHHF 250435Z AUTO 16018G24KT 10SM CLR 25/19 A2996 RMK AO2 T02530191
KHHF 250415Z AUTO 17015G23KT 10SM CLR 26/19 A2996 RMK AO2 T02570190
KHHF 250355Z AUTO 16016G22KT 10SM CLR 26/19 A2996 RMK AO2 T02620188
KHHF 250335Z AUTO 17016G23KT 10SM CLR 27/19 A2996 RMK AO2 T02650187
KHHF 250315Z AUTO 17015G19KT 10SM CLR 27/19 A2995 RMK AO2 T02680188
KHHF 250255Z AUTO 16013G17KT 10SM CLR 27/19 A2995 RMK AO2 T02690187
KHHF 250235Z AUTO 16013G18KT 10SM CLR 27/19 A2995 RMK AO2 T02720186
KHHF 250215Z AUTO 16012KT 10SM CLR 28/19 A2995 RMK AO2 T02750185
KHHF 250155Z AUTO 16011G15KT 10SM CLR 28/19 A2994 RMK AO2 T02820185
KHHF 250135Z AUTO 17010KT 10SM CLR 29/19 A2993 RMK AO2 T02890185
KHHF 250115Z AUTO 17010KT 10SM CLR 30/19 A2993 RMK AO2 T02950188
KHHF 250055Z AUTO 17010G18KT 10SM CLR 30/19 A2993 RMK AO2 T03030187
KHHF 250035Z AUTO 17010G18KT 10SM CLR 31/19 A2993 RMK AO2 T03070187
KHHF 250015Z AUTO 18011KT 10SM CLR 31/19 A2994 RMK AO2 T03100186
KHHF 242355Z AUTO 17013G17KT 10SM CLR 32/19 A2994 RMK AO2 T03150187 10327 20296
KHHF 242335Z AUTO 17012G15KT 10SM CLR 33/19 A2995 RMK AO2 T03250188
KHHF 242315Z AUTO 18009G12KT 10SM CLR 33/18 A2995 RMK AO2 T03250183
KHHF 242255Z AUTO 19010G17KT 10SM CLR 33/17 A2995 RMK AO2 T03250171
KHHF 242235Z AUTO 18010G18KT 10SM CLR 33/16 A2996 RMK AO2 T03250164
KHHF 242215Z AUTO 20013KT 10SM SCT060 33/17 A2997 RMK AO2 T03250166
KHHF 242155Z AUTO 20011KT 10SM SCT060 33/17 A2998 RMK AO2 T03250172
KHHF 242135Z AUTO 20011KT 10SM CLR 33/17 A2999 RMK AO2 T03250174
KHHF 242115Z AUTO 22014G19KT 10SM CLR 33/17 A3000 RMK AO2 T03260167
KHHF 242055Z AUTO 22014G19KT 10SM CLR 33/18 A3000 RMK AO2 T03250175
KHHF 242035Z AUTO 21013G18KT 10SM CLR 33/17 A3001 RMK AO2 T03250173
KHHF 242015Z AUTO 22013G19KT 10SM CLR 32/18 A3001 RMK AO2 T03170175
KHHF 241955Z AUTO 22012G19KT 10SM CLR 32/19 A3002 RMK AO2 T03240190
KHHF 241935Z AUTO 25014G20KT 10SM CLR 31/19 A3002 RMK AO2 T03130191
KHHF 241915Z AUTO 21015G20KT 10SM CLR 31/19 A3003 RMK AO2 T03130189
KHHF 241855Z AUTO 23014G24KT 10SM CLR 31/19 A3003 RMK AO2 T03100188
KHHF 241835Z AUTO 23016G19KT 10SM CLR 30/19 A3004 RMK AO2 T03040186
KHHF 241815Z AUTO 23013G22KT 10SM CLR 30/18 A3004 RMK AO2 T02990184
KHHF 241755Z AUTO 22016G21KT 10SM CLR 30/18 A3005 RMK AO2 T02960177 10298 20168
KHHF 241735Z AUTO 21014G18KT 10SM CLR 29/19 A3005 RMK AO2 T02940185
KHHF 241715Z AUTO 23017G20KT 10SM CLR 29/18 A3006 RMK AO2 T02860181
KHHF 241655Z AUTO 22010G15KT 10SM CLR 27/18 A3006 RMK AO2 P0001 T02740178
KHHF 241635Z AUTO 22011G14KT 10SM CLR 26/17 A3007 RMK AO2 P0001 T02560169